Time;durP1;ratioP1;P1;durP2;ratioP2;P2;SDS_P1;SDS_P2;PMS_P1;PMS_P2;Temp;Humidity;BMP_temperature;BMP_pressure;BME280_temperature;BME280_humidity;BME280_pressure;Samples;Min_cycle;Max_cycle;Signal;HPM_P1;HPM_P2
2022/07/16 00:03:37;;;;;;;6.88;1.90;;;15.10;99.90;;;;;;5062284;28;20043;-63
2022/07/16 00:06:03;;;;;;;4.05;1.90;;;15.10;99.90;;;;;;5064511;28;20100;-62
2022/07/16 00:08:29;;;;;;;2.13;1.70;;;15.10;99.90;;;;;;5060165;28;20017;-62
2022/07/16 00:10:54;;;;;;;1.80;1.50;;;15.10;99.90;;;;;;5057416;28;20896;-63
2022/07/16 00:13:20;;;;;;;5.57;2.03;;;15.10;99.90;;;;;;5060272;28;20037;-62
2022/07/16 00:15:45;;;;;;;1.83;1.67;;;15.10;99.90;;;;;;5065034;28;20023;-64
2022/07/16 00:20:56;;;;;;;4.80;1.90;;;15.10;99.90;;;;;;5063986;28;20124;-62
2022/07/16 00:23:21;;;;;;;2.60;1.83;;;15.10;99.90;;;;;;5045459;28;20111;-61
2022/07/16 00:25:47;;;;;;;2.97;2.20;;;15.00;99.90;;;;;;5064307;28;20036;-63
2022/07/16 00:28:12;;;;;;;3.25;2.05;;;15.00;99.90;;;;;;5063592;28;20431;-63
2022/07/16 00:30:38;;;;;;;2.35;2.03;;;14.90;99.90;;;;;;5056725;28;20052;-62
2022/07/16 00:33:04;;;;;;;4.28;1.75;;;14.90;99.90;;;;;;5043019;28;20029;-62
2022/07/16 00:35:29;;;;;;;3.30;2.03;;;14.90;99.90;;;;;;5060593;28;20123;-63
2022/07/16 00:37:55;;;;;;;3.40;2.10;;;14.80;99.90;;;;;;5063611;28;20059;-61
2022/07/16 00:40:20;;;;;;;2.75;1.80;;;14.80;99.90;;;;;;5059028;28;20035;-64
2022/07/16 00:42:46;;;;;;;3.80;2.42;;;14.80;99.90;;;;;;5045142;28;20455;-64
2022/07/16 00:45:12;;;;;;;2.80;2.13;;;14.70;99.90;;;;;;5060239;28;20195;-64
2022/07/16 00:47:37;;;;;;;3.47;2.22;;;14.70;99.90;;;;;;5044599;28;20024;-63
2022/07/16 00:50:04;;;;;;;3.50;2.25;;;14.70;99.90;;;;;;5047597;28;20661;-63
2022/07/16 00:52:29;;;;;;;4.72;2.92;;;14.60;99.90;;;;;;5108914;22;20122;-56
2022/07/16 00:54:55;;;;;;;2.53;2.33;;;14.70;99.90;;;;;;5091316;28;20052;-56
2022/07/16 00:57:20;;;;;;;3.13;2.92;;;14.60;99.90;;;;;;5106313;28;20034;-56
2022/07/16 00:59:46;;;;;;;3.92;3.22;;;14.50;99.90;;;;;;5109338;28;20051;-56
2022/07/16 01:02:12;;;;;;;2.65;2.45;;;14.50;99.90;;;;;;5090935;28;20027;-55
2022/07/16 01:04:37;;;;;;;5.00;2.80;;;14.50;99.90;;;;;;5086648;28;20501;-56
2022/07/16 01:07:04;;;;;;;3.83;3.38;;;14.50;99.90;;;;;;5063850;28;20048;-55
2022/07/16 01:09:31;;;;;;;3.20;2.90;;;14.50;99.90;;;;;;5064476;28;20029;-54
2022/07/16 01:11:58;;;;;;;5.13;3.45;;;14.50;99.90;;;;;;5078939;28;20032;-54
2022/07/16 01:14:24;;;;;;;3.42;3.13;;;14.50;99.90;;;;;;5085274;28;20031;-58
2022/07/16 01:16:50;;;;;;;3.65;3.22;;;14.50;99.90;;;;;;5087340;28;20082;-56
2022/07/16 01:19:16;;;;;;;3.42;3.13;;;14.50;99.90;;;;;;5089976;28;20043;-53
2022/07/16 01:21:43;;;;;;;3.20;2.90;;;14.50;99.90;;;;;;5078596;28;20035;-54
2022/07/16 01:24:08;;;;;;;3.42;2.95;;;14.50;99.90;;;;;;5080987;28;20028;-51
2022/07/16 01:26:34;;;;;;;2.88;2.63;;;14.40;99.90;;;;;;5078496;28;20588;-52
2022/07/16 01:29:00;;;;;;;4.20;2.80;;;14.40;99.90;;;;;;5086397;28;20036;-55
2022/07/16 01:31:28;;;;;;;3.33;2.88;;;14.40;99.90;;;;;;5083537;28;20020;-57
2022/07/16 01:36:40;;;;;;;3.83;2.90;;;14.40;99.90;;;;;;5090065;28;20055;-57
2022/07/16 01:39:06;;;;;;;3.85;3.20;;;14.40;99.90;;;;;;5086348;28;20028;-59
2022/07/16 01:41:32;;;;;;;2.92;2.65;;;14.40;99.90;;;;;;5082702;28;20017;-60
2022/07/16 01:43:58;;;;;;;4.50;3.17;;;14.40;99.90;;;;;;5084920;28;20024;-61
2022/07/16 01:46:23;;;;;;;4.53;3.42;;;14.40;99.90;;;;;;5077852;28;20553;-62
2022/07/16 01:48:49;;;;;;;4.22;3.33;;;14.40;99.90;;;;;;5085501;28;20052;-63
2022/07/16 01:51:14;;;;;;;3.75;3.38;;;14.30;99.90;;;;;;5066942;28;20516;-64
2022/07/16 01:53:41;;;;;;;5.57;3.42;;;14.30;99.90;;;;;;5088433;28;20525;-65
2022/07/16 01:56:07;;;;;;;4.90;3.33;;;14.40;99.90;;;;;;5087475;28;20027;-62
2022/07/16 01:58:32;;;;;;;6.18;3.85;;;14.30;99.90;;;;;;5089652;28;20101;-64
2022/07/16 02:00:58;;;;;;;3.85;3.40;;;14.30;99.90;;;;;;5089478;28;20114;-63
2022/07/16 02:03:23;;;;;;;5.22;3.55;;;14.30;99.90;;;;;;5084232;28;20040;-64
2022/07/16 02:05:49;;;;;;;3.15;2.83;;;14.30;99.90;;;;;;5091717;28;20024;-65
2022/07/16 02:08:15;;;;;;;5.85;3.85;;;14.30;99.90;;;;;;5086694;28;20069;-64
2022/07/16 02:10:40;;;;;;;5.80;3.78;;;14.30;99.90;;;;;;5090559;28;20059;-63
2022/07/16 02:13:06;;;;;;;4.03;3.47;;;14.30;99.90;;;;;;5086058;28;20035;-65
2022/07/16 02:15:33;;;;;;;3.55;3.10;;;14.30;99.90;;;;;;5088726;28;20024;-65
2022/07/16 02:17:59;;;;;;;5.35;3.67;;;14.30;99.90;;;;;;5090039;28;20043;-65
2022/07/16 02:20:24;;;;;;;5.45;3.20;;;14.30;99.90;;;;;;5069681;28;20028;-63
2022/07/16 02:22:52;;;;;;;3.75;3.40;;;14.30;99.90;;;;;;5072870;28;20056;-63
2022/07/16 02:25:18;;;;;;;3.20;3.00;;;14.20;99.90;;;;;;5087109;28;20039;-61
2022/07/16 02:30:28;;;;;;;5.00;2.95;;;14.30;99.90;;;;;;5085125;28;20525;-62
2022/07/16 02:32:54;;;;;;;3.10;2.58;;;14.30;99.90;;;;;;5072372;28;20020;-62
2022/07/16 02:35:19;;;;;;;3.88;2.58;;;14.30;99.90;;;;;;5084643;28;20378;-63
2022/07/16 02:37:45;;;;;;;2.55;2.35;;;14.30;99.90;;;;;;5087435;28;20060;-62
2022/07/16 02:40:11;;;;;;;3.15;2.13;;;14.30;99.90;;;;;;5090217;28;20710;-65
2022/07/16 02:42:36;;;;;;;2.95;2.42;;;14.40;99.90;;;;;;5088921;28;20028;-62
2022/07/16 02:45:03;;;;;;;2.83;2.55;;;14.30;99.90;;;;;;5080062;28;20036;-62
2022/07/16 02:47:28;;;;;;;2.17;1.95;;;14.30;99.90;;;;;;5091663;28;20475;-62
2022/07/16 02:49:54;;;;;;;4.45;2.00;;;14.40;99.90;;;;;;5090563;28;20074;-62
2022/07/16 02:52:20;;;;;;;3.85;2.20;;;14.30;99.90;;;;;;5071905;28;20421;-62
2022/07/16 02:54:46;;;;;;;2.40;1.70;;;14.30;99.90;;;;;;5083016;28;20058;-62
2022/07/16 02:57:11;;;;;;;1.58;1.48;;;14.30;99.90;;;;;;5088335;28;20059;-63
2022/07/16 02:59:37;;;;;;;3.55;2.08;;;14.30;99.90;;;;;;5091169;28;20034;-62
2022/07/16 03:02:02;;;;;;;2.70;1.80;;;14.30;99.90;;;;;;5079215;28;20033;-61
2022/07/16 03:04:28;;;;;;;2.30;1.50;;;14.30;99.90;;;;;;5065413;28;20024;-60
2022/07/16 03:06:53;;;;;;;3.70;1.90;;;14.30;99.90;;;;;;5087450;28;20029;-61
2022/07/16 03:09:19;;;;;;;2.20;2.00;;;14.30;99.90;;;;;;5082220;28;20532;-62
2022/07/16 03:11:44;;;;;;;1.85;1.58;;;14.30;99.90;;;;;;5087897;28;20055;-60
2022/07/16 03:14:10;;;;;;;2.20;2.00;;;14.30;99.90;;;;;;5081173;28;20030;-62
2022/07/16 03:16:36;;;;;;;3.15;1.52;;;14.30;99.90;;;;;;5090850;28;20110;-63
2022/07/16 03:19:01;;;;;;;1.75;1.65;;;14.20;99.90;;;;;;5086375;28;20515;-62
2022/07/16 03:21:27;;;;;;;7.25;2.47;;;14.20;99.90;;;;;;5090154;28;20385;-62
2022/07/16 03:23:52;;;;;;;2.03;1.58;;;14.20;99.90;;;;;;5086084;28;20043;-62
2022/07/16 03:26:18;;;;;;;2.13;1.67;;;14.10;99.90;;;;;;5072336;28;20095;-61
2022/07/16 03:28:43;;;;;;;2.30;1.60;;;14.10;99.90;;;;;;5085369;28;20012;-62
2022/07/16 03:31:09;;;;;;;2.17;1.60;;;14.10;99.90;;;;;;5087889;28;20413;-61
2022/07/16 03:33:35;;;;;;;2.83;1.70;;;14.10;99.90;;;;;;5084464;28;20430;-62
2022/07/16 03:36:00;;;;;;;2.35;1.33;;;14.10;99.90;;;;;;5071212;28;20521;-60
2022/07/16 03:41:10;;;;;;;3.72;1.45;;;14.10;99.90;;;;;;5087504;28;20409;-61
2022/07/16 03:43:36;;;;;;;1.77;1.30;;;14.10;99.90;;;;;;5068709;28;20028;-62
2022/07/16 03:46:01;;;;;;;2.75;1.60;;;14.10;99.90;;;;;;5087508;28;20474;-62
2022/07/16 03:48:27;;;;;;;4.43;1.98;;;14.10;99.90;;;;;;5071197;28;20020;-62
2022/07/16 03:50:52;;;;;;;3.15;2.03;;;14.10;99.90;;;;;;5080788;28;20031;-63
2022/07/16 03:53:18;;;;;;;2.92;1.60;;;14.10;99.90;;;;;;5069598;28;20119;-62
2022/07/16 03:55:43;;;;;;;3.55;2.10;;;14.10;99.90;;;;;;5088376;28;20031;-62
2022/07/16 03:58:09;;;;;;;1.38;1.27;;;14.10;99.90;;;;;;5082933;28;20522;-63
2022/07/16 04:00:35;;;;;;;1.85;1.70;;;14.10;99.90;;;;;;5083290;28;20178;-61
2022/07/16 04:03:00;;;;;;;3.42;1.70;;;14.10;99.90;;;;;;5080247;28;20486;-61
2022/07/16 04:05:26;;;;;;;3.10;1.70;;;14.10;99.90;;;;;;5079794;28;20032;-61
2022/07/16 04:07:51;;;;;;;3.35;1.60;;;14.10;99.90;;;;;;5087377;28;20028;-63
2022/07/16 04:10:17;;;;;;;4.53;1.60;;;14.10;99.90;;;;;;5078999;28;20021;-62
2022/07/16 04:12:42;;;;;;;2.85;1.60;;;14.10;99.90;;;;;;5085778;28;20028;-63
2022/07/16 04:15:08;;;;;;;3.50;1.67;;;14.10;99.90;;;;;;5089779;28;20114;-62
2022/07/16 04:17:34;;;;;;;2.10;1.55;;;14.10;99.90;;;;;;5086131;28;20024;-61
2022/07/16 04:19:59;;;;;;;2.47;1.80;;;14.10;99.90;;;;;;5088825;28;20020;-61
2022/07/16 04:22:25;;;;;;;3.08;1.35;;;14.10;99.90;;;;;;5084458;28;20605;-62
2022/07/16 04:24:50;;;;;;;1.80;1.23;;;14.10;99.90;;;;;;5087350;28;20471;-61
2022/07/16 04:27:16;;;;;;;6.15;1.40;;;14.10;99.90;;;;;;5078897;28;20089;-62
2022/07/16 04:29:44;;;;;;;1.35;1.25;;;14.00;99.90;;;;;;5084026;28;20111;-65
2022/07/16 04:32:10;;;;;;;2.53;1.33;;;14.00;99.90;;;;;;5067425;28;20190;-63
2022/07/16 04:34:36;;;;;;;2.97;1.40;;;14.00;99.90;;;;;;5078001;28;20115;-62
2022/07/16 04:37:01;;;;;;;4.05;1.67;;;14.00;99.90;;;;;;5069870;28;20031;-61
2022/07/16 04:39:27;;;;;;;2.17;1.50;;;14.00;99.90;;;;;;5084766;28;20032;-62
2022/07/16 04:41:52;;;;;;;2.90;1.48;;;14.00;99.90;;;;;;5087266;28;20635;-62
2022/07/16 04:44:18;;;;;;;3.22;1.30;;;14.00;99.90;;;;;;5081882;28;20039;-64
2022/07/16 04:46:43;;;;;;;3.85;1.75;;;14.00;99.90;;;;;;5084708;28;20051;-63
2022/07/16 04:49:09;;;;;;;3.42;1.50;;;14.00;99.90;;;;;;5070983;28;20109;-62
2022/07/16 04:51:34;;;;;;;2.58;1.48;;;14.00;99.90;;;;;;5085872;28;20177;-61
2022/07/16 04:54:00;;;;;;;1.05;0.95;;;13.90;99.90;;;;;;5083547;28;20514;-62
2022/07/16 04:56:26;;;;;;;1.70;1.60;;;13.90;99.90;;;;;;5088512;28;20178;-62
2022/07/16 04:58:51;;;;;;;3.58;1.63;;;13.90;99.90;;;;;;5088615;28;20423;-63
2022/07/16 05:01:17;;;;;;;2.75;1.17;;;13.90;99.90;;;;;;5087448;28;20056;-62
2022/07/16 05:03:42;;;;;;;2.45;1.65;;;13.90;99.90;;;;;;5081575;28;20080;-63
2022/07/16 05:06:08;;;;;;;6.25;1.83;;;14.00;99.90;;;;;;5087539;28;20067;-63
2022/07/16 05:08:33;;;;;;;7.40;1.60;;;14.10;99.90;;;;;;5081194;28;20060;-63
2022/07/16 05:10:59;;;;;;;2.70;1.88;;;14.10;99.90;;;;;;5082064;28;20028;-63
2022/07/16 05:13:24;;;;;;;3.08;1.65;;;14.10;99.90;;;;;;5086400;28;20107;-63
2022/07/16 05:15:50;;;;;;;4.70;1.77;;;14.20;99.90;;;;;;5088569;28;20061;-63
2022/07/16 05:18:16;;;;;;;2.28;1.88;;;14.20;99.90;;;;;;5081162;28;20226;-64
2022/07/16 05:20:41;;;;;;;2.50;1.60;;;14.20;99.90;;;;;;5081186;28;20052;-66
2022/07/16 05:23:07;;;;;;;3.67;1.50;;;14.10;99.90;;;;;;5083804;28;20546;-64
2022/07/16 05:25:32;;;;;;;6.10;1.50;;;14.10;99.90;;;;;;5089174;28;20028;-63
2022/07/16 05:27:58;;;;;;;2.30;1.60;;;14.10;99.90;;;;;;5088342;28;20028;-65
2022/07/16 05:30:24;;;;;;;3.95;1.95;;;14.10;99.90;;;;;;5072610;28;20107;-65
2022/07/16 05:32:50;;;;;;;2.40;1.20;;;14.10;99.90;;;;;;5087407;28;20462;-64
2022/07/16 05:35:17;;;;;;;2.95;1.13;;;14.10;99.90;;;;;;5093012;28;20020;-66
2022/07/16 05:37:43;;;;;;;3.65;1.33;;;14.10;99.90;;;;;;5088494;28;20028;-64
2022/07/16 05:40:10;;;;;;;3.88;1.23;;;14.10;99.90;;;;;;5093632;28;20028;-64
2022/07/16 05:42:36;;;;;;;2.53;1.55;;;14.10;99.90;;;;;;5095037;28;20097;-64
2022/07/16 05:45:01;;;;;;;2.75;1.40;;;14.10;99.90;;;;;;5094690;28;20462;-64
2022/07/16 05:47:27;;;;;;;5.32;1.42;;;14.20;99.90;;;;;;5093636;28;20024;-64
2022/07/16 05:49:53;;;;;;;7.18;1.70;;;14.20;99.90;;;;;;5094427;28;20016;-64
2022/07/16 05:52:18;;;;;;;2.50;1.40;;;14.30;99.90;;;;;;5093659;28;20036;-64
2022/07/16 05:54:44;;;;;;;3.83;1.77;;;14.30;99.90;;;;;;5092306;28;20044;-65
2022/07/16 05:57:09;;;;;;;6.40;1.98;;;14.20;99.90;;;;;;5077579;28;20375;-64
2022/07/16 05:59:35;;;;;;;2.70;1.55;;;14.30;99.90;;;;;;5096755;28;20028;-65
2022/07/16 06:02:01;;;;;;;3.08;1.50;;;14.30;99.90;;;;;;5073136;28;20437;-64
2022/07/16 06:04:26;;;;;;;2.90;1.42;;;14.30;99.90;;;;;;5098018;28;20032;-65
2022/07/16 06:06:52;;;;;;;4.05;1.95;;;14.40;99.90;;;;;;5096355;28;20024;-64
2022/07/16 06:09:18;;;;;;;4.00;1.15;;;14.50;99.90;;;;;;5090666;28;20023;-64
2022/07/16 06:11:43;;;;;;;4.72;1.10;;;14.50;99.90;;;;;;5094330;28;20081;-64
2022/07/16 06:14:09;;;;;;;3.70;1.13;;;14.50;99.90;;;;;;5099182;28;20024;-65
2022/07/16 06:16:34;;;;;;;2.15;1.40;;;14.60;99.90;;;;;;5102839;28;20024;-64
2022/07/16 06:19:00;;;;;;;1.90;1.00;;;14.60;99.90;;;;;;5097403;28;20055;-65
2022/07/16 06:21:25;;;;;;;5.53;2.92;;;14.60;99.90;;;;;;5102432;28;20039;-67
2022/07/16 06:23:51;;;;;;;2.00;1.00;;;14.70;99.90;;;;;;5098822;28;20020;-66
2022/07/16 06:26:17;;;;;;;4.60;1.13;;;14.80;99.90;;;;;;5097115;28;20054;-65
2022/07/16 06:28:42;;;;;;;2.10;1.15;;;14.80;99.90;;;;;;5098858;28;20016;-64
2022/07/16 06:31:08;;;;;;;1.67;0.80;;;14.90;99.90;;;;;;5081892;28;20513;-64
2022/07/16 06:33:34;;;;;;;4.30;1.10;;;14.90;99.90;;;;;;5094638;28;20052;-65
2022/07/16 06:35:59;;;;;;;4.47;1.40;;;14.80;99.90;;;;;;5095432;28;20609;-64
2022/07/16 06:38:25;;;;;;;4.43;1.98;;;14.90;99.90;;;;;;5078865;28;20047;-63
2022/07/16 06:40:51;;;;;;;5.35;1.30;;;14.90;99.90;;;;;;5092777;28;20133;-63
2022/07/16 06:43:16;;;;;;;4.03;1.10;;;14.90;99.90;;;;;;5099277;28;20024;-65
2022/07/16 06:45:43;;;;;;;4.50;0.82;;;15.00;99.90;;;;;;5078341;28;20051;-64
2022/07/16 06:48:09;;;;;;;3.47;1.10;;;15.00;99.90;;;;;;5099482;28;20032;-64
2022/07/16 06:50:34;;;;;;;3.63;1.13;;;15.10;99.90;;;;;;5099036;28;20024;-63
2022/07/16 06:53:00;;;;;;;6.50;1.02;;;15.30;99.90;;;;;;5128576;22;20039;-60
2022/07/16 06:55:26;;;;;;;3.80;0.75;;;15.10;99.90;;;;;;5111254;28;20496;-60
2022/07/16 06:57:52;;;;;;;2.03;0.82;;;15.10;99.90;;;;;;5110869;28;20028;-59
2022/07/16 07:00:18;;;;;;;6.05;1.10;;;15.20;99.90;;;;;;5111504;28;20035;-59
2022/07/16 07:02:43;;;;;;;5.07;1.27;;;15.40;99.90;;;;;;5103538;28;20028;-60
2022/07/16 07:05:09;;;;;;;7.70;0.93;;;15.50;99.90;;;;;;5106807;28;20020;-61
2022/07/16 07:07:35;;;;;;;3.38;1.10;;;15.70;99.90;;;;;;5099539;28;20028;-57
2022/07/16 07:10:00;;;;;;;4.70;1.08;;;15.80;99.90;;;;;;5107220;28;20024;-60
2022/07/16 07:12:26;;;;;;;3.60;0.90;;;16.00;99.90;;;;;;5099074;28;20158;-61
2022/07/16 07:14:52;;;;;;;5.18;0.93;;;16.10;99.90;;;;;;5099599;28;20024;-56
2022/07/16 07:17:17;;;;;;;5.50;1.17;;;16.00;99.90;;;;;;5104615;28;20026;-59
2022/07/16 07:19:43;;;;;;;4.22;0.95;;;16.00;99.90;;;;;;5099271;28;20131;-61
2022/07/16 07:22:08;;;;;;;5.47;1.10;;;15.90;99.90;;;;;;5080152;28;20119;-62
2022/07/16 07:24:34;;;;;;;4.38;1.27;;;15.80;99.90;;;;;;5080715;28;20016;-62
2022/07/16 07:26:59;;;;;;;4.05;1.00;;;15.80;99.90;;;;;;5099933;28;20033;-62
2022/07/16 07:29:25;;;;;;;2.33;0.85;;;15.90;99.90;;;;;;5103420;28;20485;-60
2022/07/16 07:31:51;;;;;;;7.05;1.00;;;15.90;99.90;;;;;;5098883;28;20530;-56
2022/07/16 07:34:16;;;;;;;6.20;1.05;;;15.90;99.90;;;;;;5098850;28;20094;-59
2022/07/16 07:36:42;;;;;;;2.50;0.50;;;15.80;99.90;;;;;;5098837;28;20510;-61
2022/07/16 07:39:07;;;;;;;2.42;1.20;;;15.70;99.90;;;;;;5095050;28;20060;-61
2022/07/16 07:41:33;;;;;;;5.07;0.75;;;15.80;99.90;;;;;;5096343;28;20054;-62
2022/07/16 07:43:58;;;;;;;0.90;0.65;;;15.90;99.90;;;;;;5094374;28;20091;-60
2022/07/16 07:46:24;;;;;;;3.78;0.80;;;16.10;99.90;;;;;;5102246;28;20027;-59
2022/07/16 07:48:50;;;;;;;1.40;0.73;;;16.40;99.90;;;;;;5099639;28;20115;-61
2022/07/16 07:51:16;;;;;;;4.05;1.05;;;16.70;99.90;;;;;;5094098;28;20403;-58
2022/07/16 07:53:41;;;;;;;4.53;0.82;;;16.70;99.90;;;;;;5094336;28;20035;-61
2022/07/16 07:56:08;;;;;;;2.80;0.60;;;16.80;99.90;;;;;;5091023;28;20035;-58
2022/07/16 07:58:35;;;;;;;3.55;0.82;;;16.80;99.90;;;;;;5088921;28;20023;-59
2022/07/16 08:01:04;;;;;;;4.10;0.98;;;16.40;99.90;;;;;;5097488;28;20027;-54
2022/07/16 08:03:30;;;;;;;2.67;0.98;;;16.40;99.90;;;;;;5097062;28;20024;-55
2022/07/16 08:05:55;;;;;;;4.47;0.80;;;16.60;99.90;;;;;;5099202;28;20459;-59
2022/07/16 08:08:21;;;;;;;4.13;0.88;;;16.80;99.90;;;;;;5097957;28;20020;-60
2022/07/16 08:10:46;;;;;;;4.30;1.08;;;17.10;99.90;;;;;;5098332;28;20076;-56
2022/07/16 08:13:12;;;;;;;7.57;1.05;;;17.30;99.90;;;;;;5098700;28;20015;-58
2022/07/16 08:15:38;;;;;;;3.38;1.00;;;17.40;99.90;;;;;;5095517;28;20031;-58
2022/07/16 08:18:03;;;;;;;5.28;0.90;;;17.60;99.90;;;;;;5099481;28;20028;-60
2022/07/16 08:20:29;;;;;;;1.92;0.70;;;17.80;99.90;;;;;;5096695;28;20034;-60
2022/07/16 08:22:55;;;;;;;1.00;0.52;;;18.10;99.90;;;;;;5099158;28;20012;-61
2022/07/16 08:28:04;;;;;;;2.47;0.68;;;18.30;99.90;;;;;;5099545;28;20043;-60
2022/07/16 08:30:30;;;;;;;2.97;0.77;;;18.20;99.90;;;;;;5101510;28;20427;-59
2022/07/16 08:32:56;;;;;;;2.13;0.85;;;18.10;99.90;;;;;;5095973;28;20028;-60
2022/07/16 08:35:21;;;;;;;4.55;1.33;;;17.80;99.90;;;;;;5095821;28;20023;-59
2022/07/16 08:37:47;;;;;;;5.07;0.95;;;17.80;99.90;;;;;;5099754;28;20019;-59
2022/07/16 08:40:22;;;;;;;2.28;1.02;;;18.10;99.90;;;;;;5082662;28;20023;-59
2022/07/16 08:42:48;;;;;;;2.20;0.65;;;18.20;99.90;;;;;;5096162;28;20023;-60
2022/07/16 08:45:22;;;;;;;3.92;0.75;;;18.20;99.90;;;;;;5100742;28;20080;-59
2022/07/16 08:47:50;;;;;;;1.85;0.70;;;18.00;99.90;;;;;;5100141;28;20469;-59
2022/07/16 08:50:16;;;;;;;3.45;1.17;;;17.80;99.90;;;;;;5076883;28;20034;-60
2022/07/16 08:52:47;;;;;;;3.70;1.05;;;17.90;99.90;;;;;;5099925;28;20111;-58
2022/07/16 08:55:13;;;;;;;4.22;1.00;;;17.90;99.90;;;;;;5102581;28;20366;-60
2022/07/16 08:57:40;;;;;;;3.53;0.82;;;17.70;99.90;;;;;;5062165;28;20115;-61
2022/07/16 09:00:11;;;;;;;5.75;1.10;;;17.50;99.90;;;;;;5103220;28;20068;-61
2022/07/16 09:02:37;;;;;;;4.32;0.70;;;17.40;99.90;;;;;;5095350;28;20016;-61
2022/07/16 09:05:03;;;;;;;4.47;1.17;;;17.40;99.90;;;;;;5096920;28;20402;-61
2022/07/16 09:07:29;;;;;;;3.22;0.80;;;17.40;99.90;;;;;;5093675;28;20028;-57
2022/07/16 09:09:55;;;;;;;2.45;0.70;;;17.50;99.90;;;;;;5104581;28;20019;-61
2022/07/16 09:12:49;;;;;;;1.73;0.73;;;17.60;99.90;;;;;;5091872;28;20463;-61
2022/07/16 09:15:35;;;;;;;1.92;0.57;;;17.80;99.90;;;;;;5046347;28;20188;-57
2022/07/16 09:18:20;;;;;;;2.65;0.98;;;17.70;99.90;;;;;;5097448;28;20055;-58
2022/07/16 09:21:04;;;;;;;3.58;1.00;;;17.80;99.20;;;;;;5098044;28;20076;-59
2022/07/16 09:23:31;;;;;;;4.57;1.00;;;18.20;99.90;;;;;;5093410;28;20436;-59
2022/07/16 09:26:03;;;;;;;2.70;1.13;;;18.50;99.90;;;;;;5098563;28;20471;-59
2022/07/16 09:28:42;;;;;;;4.03;1.08;;;18.60;99.80;;;;;;5100237;28;20046;-58
2022/07/16 09:31:08;;;;;;;4.68;1.02;;;18.60;99.00;;;;;;5096733;28;20027;-60
2022/07/16 09:33:33;;;;;;;2.53;0.90;;;18.70;98.90;;;;;;5100679;28;20030;-60
2022/07/16 09:36:11;;;;;;;2.20;0.70;;;19.00;99.90;;;;;;5099139;28;20023;-55
2022/07/16 09:38:50;;;;;;;3.58;1.10;;;19.20;98.90;;;;;;5098718;28;20051;-55
2022/07/16 09:41:17;;;;;;;2.85;0.88;;;19.00;98.00;;;;;;5088547;28;20028;-58
2022/07/16 09:43:43;;;;;;;4.38;1.10;;;18.60;98.10;;;;;;5091681;28;20110;-57
2022/07/16 09:46:16;;;;;;;2.05;0.95;;;18.30;99.80;;;;;;5086908;28;21261;-55
2022/07/16 09:48:44;;;;;;;5.93;1.00;;;18.00;99.20;;;;;;5075953;28;20492;-57
2022/07/16 09:51:20;;;;;;;3.08;0.85;;;17.80;99.60;;;;;;5081297;28;20043;-58
2022/07/16 09:53:48;;;;;;;4.30;1.02;;;17.80;99.90;;;;;;5100195;28;20119;-57
2022/07/16 09:56:21;;;;;;;2.63;1.20;;;17.90;99.90;;;;;;5074932;28;20080;-59
2022/07/16 09:58:53;;;;;;;3.70;0.88;;;18.20;99.90;;;;;;5096746;28;20016;-56
2022/07/16 10:01:20;;;;;;;2.35;0.88;;;18.50;99.90;;;;;;5095208;28;20016;-59
2022/07/16 10:03:47;;;;;;;6.65;1.00;;;18.70;99.90;;;;;;5098417;28;20055;-59
2022/07/16 10:06:13;;;;;;;4.50;1.02;;;18.90;99.90;;;;;;5099640;28;20362;-55
2022/07/16 10:08:40;;;;;;;5.93;1.27;;;18.90;98.30;;;;;;5100522;28;20670;-59
2022/07/16 10:11:07;;;;;;;2.80;0.70;;;19.00;99.40;;;;;;5099523;28;20028;-53
2022/07/16 10:13:34;;;;;;;3.38;0.88;;;19.00;98.30;;;;;;5081445;28;20024;-61
2022/07/16 10:16:00;;;;;;;3.60;0.77;;;19.00;99.90;;;;;;5094696;28;20119;-56
2022/07/16 10:19:01;;;;;;;4.10;0.80;;;19.00;99.20;;;;;;5103979;28;20062;-58
2022/07/16 10:21:26;;;;;;;4.63;1.42;;;18.90;99.50;;;;;;5083941;28;20197;-56
2022/07/16 10:24:05;;;;;;;3.20;1.02;;;18.90;99.70;;;;;;5103317;28;20102;-58
2022/07/16 10:26:35;;;;;;;3.40;1.20;;;18.90;99.90;;;;;;5092763;28;20031;-53
2022/07/16 10:29:04;;;;;;;6.70;0.88;;;18.80;99.90;;;;;;5101986;28;20030;-51
2022/07/16 10:31:39;;;;;;;3.55;0.65;;;18.50;99.90;;;;;;5074387;28;20200;-58
2022/07/16 10:34:13;;;;;;;3.63;1.15;;;18.30;99.90;;;;;;5105918;28;20020;-57
2022/07/16 10:36:53;;;;;;;3.58;1.10;;;18.40;99.90;;;;;;5089096;28;20028;-58
2022/07/16 10:39:22;;;;;;;5.40;1.40;;;18.70;99.90;;;;;;5090512;28;20047;-56
2022/07/16 10:41:52;;;;;;;4.15;1.73;;;19.00;99.80;;;;;;5090228;28;20432;-57
2022/07/16 10:44:19;;;;;;;4.60;1.25;;;19.00;98.30;;;;;;5091601;28;20023;-57
2022/07/16 10:46:57;;;;;;;2.35;0.88;;;18.90;99.30;;;;;;5101595;28;20069;-55
2022/07/16 10:49:24;;;;;;;2.67;0.70;;;18.90;98.00;;;;;;5089652;28;20022;-54
2022/07/16 10:52:10;;;;;;;6.18;1.30;;;18.80;97.90;;;;;;5102403;28;20031;-55
2022/07/16 10:54:40;;;;;;;4.43;1.05;;;18.80;98.20;;;;;;5103666;28;20099;-54
2022/07/16 10:57:10;;;;;;;1.60;0.57;;;18.60;97.80;;;;;;5102212;28;20028;-57
2022/07/16 10:59:42;;;;;;;1.98;1.02;;;18.60;98.80;;;;;;5085745;28;21999;-59
2022/07/16 11:02:13;;;;;;;3.50;0.82;;;18.70;98.00;;;;;;5102102;28;20032;-59
2022/07/16 11:04:43;;;;;;;3.90;1.35;;;18.80;97.40;;;;;;5104892;28;20099;-55
2022/07/16 11:07:12;;;;;;;3.42;0.98;;;18.90;97.20;;;;;;5103408;28;20611;-52
2022/07/16 11:09:40;;;;;;;5.50;1.00;;;19.00;98.90;;;;;;5105760;28;20098;-54
2022/07/16 11:12:24;;;;;;;3.45;1.48;;;18.90;96.80;;;;;;5104008;28;20028;-52
2022/07/16 11:14:52;;;;;;;1.83;0.80;;;18.80;97.60;;;;;;5095828;28;20077;-59
2022/07/16 11:17:24;;;;;;;5.38;0.93;;;18.70;98.40;;;;;;5104687;28;20027;-56
2022/07/16 11:19:52;;;;;;;2.90;1.63;;;18.60;98.30;;;;;;5098880;28;20024;-57
2022/07/16 11:22:23;;;;;;;5.88;1.88;;;18.50;98.40;;;;;;5099307;28;20023;-57
2022/07/16 11:24:54;;;;;;;5.43;1.05;;;18.30;98.10;;;;;;5095687;28;20030;-55
2022/07/16 11:27:37;;;;;;;2.63;1.30;;;18.20;99.00;;;;;;5105968;28;20020;-58
2022/07/16 11:30:09;;;;;;;4.72;1.40;;;18.20;98.80;;;;;;5099024;28;20032;-56
2022/07/16 11:32:45;;;;;;;4.03;0.90;;;18.30;99.30;;;;;;5101654;28;20526;-60
2022/07/16 11:35:11;;;;;;;;;;;18.30;99.20;;;;;;5101953;28;20031;-52
2022/07/16 11:37:56;;;;;;;6.40;1.73;;;18.60;99.00;;;;;;5102385;28;20335;-55
2022/07/16 11:40:37;;;;;;;6.05;1.40;;;18.70;97.60;;;;;;5083760;28;20024;-59
2022/07/16 11:43:03;;;;;;;3.78;1.10;;;18.60;96.80;;;;;;5099919;28;20019;-58
2022/07/16 11:45:29;;;;;;;4.05;0.98;;;18.70;97.00;;;;;;5095719;28;20073;-57
2022/07/16 11:48:14;;;;;;;9.05;1.10;;;18.70;97.00;;;;;;5087237;28;20054;-59
2022/07/16 11:50:41;;;;;;;3.60;1.05;;;18.50;97.20;;;;;;5091005;28;20038;-56
2022/07/16 11:53:11;;;;;;;3.20;1.10;;;18.40;98.00;;;;;;5105409;28;20036;-53
2022/07/16 11:55:42;;;;;;;4.40;0.85;;;18.30;98.10;;;;;;5074366;28;20036;-58
2022/07/16 11:58:07;;;;;;;3.50;1.27;;;18.40;99.10;;;;;;5093124;28;20039;-57
2022/07/16 12:00:44;;;;;;;6.10;1.30;;;18.50;99.10;;;;;;5078052;28;20453;-58
2022/07/16 12:03:11;;;;;;;3.13;1.15;;;18.60;97.70;;;;;;5100156;28;20063;-51
2022/07/16 12:05:37;;;;;;;3.03;0.93;;;18.50;97.20;;;;;;5097356;28;20088;-59
2022/07/16 12:08:03;;;;;;;3.50;1.05;;;18.50;96.70;;;;;;5080427;28;20490;-61
2022/07/16 12:10:29;;;;;;;3.13;0.68;;;18.50;96.70;;;;;;5094702;28;20020;-59
2022/07/16 12:13:07;;;;;;;3.13;1.40;;;18.50;97.80;;;;;;5098810;28;20047;-57
2022/07/16 12:15:59;;;;;;;2.55;0.80;;;18.90;97.80;;;;;;5100581;28;20023;-58
2022/07/16 12:18:24;;;;;;;3.53;0.70;;;19.20;98.20;;;;;;5069913;28;20115;-58
2022/07/16 12:20:51;;;;;;;3.00;1.10;;;19.20;96.90;;;;;;5082518;28;20089;-57
2022/07/16 12:23:34;;;;;;;8.68;1.13;;;19.00;97.30;;;;;;5097865;28;20024;-59
2022/07/16 12:26:02;;;;;;;4.50;1.13;;;18.80;96.90;;;;;;5086738;28;20034;-57
2022/07/16 12:28:29;;;;;;;2.80;1.00;;;18.80;97.30;;;;;;5081176;28;20042;-58
2022/07/16 12:30:59;;;;;;;5.65;1.38;;;18.90;96.80;;;;;;5098934;28;20023;-59
2022/07/16 12:33:30;;;;;;;4.32;0.95;;;19.20;96.90;;;;;;5095055;28;20026;-58
2022/07/16 12:35:56;;;;;;;3.58;0.88;;;19.30;97.70;;;;;;5064664;28;20024;-58
2022/07/16 12:38:54;;;;;;;3.08;1.30;;;19.30;97.20;;;;;;5097589;28;20085;-58
2022/07/16 12:41:36;;;;;;;4.63;1.27;;;19.20;97.40;;;;;;5087674;28;20024;-59
2022/07/16 12:44:10;;;;;;;4.70;1.10;;;19.50;96.20;;;;;;5096356;28;20016;-60
2022/07/16 12:46:38;;;;;;;3.30;1.05;;;19.60;96.20;;;;;;5099861;28;20023;-59
2022/07/16 12:49:06;;;;;;;3.63;1.13;;;19.80;95.60;;;;;;5079264;28;20028;-60
2022/07/16 12:51:41;;;;;;;3.67;1.30;;;19.90;94.70;;;;;;5082321;28;20513;-59
2022/07/16 12:54:08;;;;;;;3.67;1.45;;;20.00;95.70;;;;;;5886228;22;20873;-59
2022/07/16 12:59:19;;;;;;;4.55;1.00;;;20.30;93.90;;;;;;5101922;28;20035;-60
2022/07/16 13:01:45;;;;;;;3.13;0.82;;;20.20;93.90;;;;;;5108186;28;20114;-62
2022/07/16 13:04:12;;;;;;;1.65;0.77;;;20.20;95.20;;;;;;5092760;28;20104;-62
2022/07/16 13:06:38;;;;;;;2.65;1.08;;;20.10;93.70;;;;;;5085121;28;20028;-60
2022/07/16 13:09:05;;;;;;;4.70;1.05;;;19.90;93.60;;;;;;5070425;28;20441;-62